Time;durP1;ratioP1;P1;durP2;ratioP2;P2;SDS_P1;SDS_P2;PMS_P1;PMS_P2;Temp;Humidity;BMP_temperature;BMP_pressure;BME280_temperature;BME280_humidity;BME280_pressure;Samples;Min_cycle;Max_cycle;Signal;HPM_P1;HPM_P2
2023/02/02 00:00:46;;;;;;;0.52;0.40;;;;;;;;;;5026966;28;20073;-76
2023/02/02 00:03:12;;;;;;;1.73;0.60;;;;;;;;;;5026386;28;20428;-76
2023/02/02 00:05:38;;;;;;;0.30;0.30;;;;;;;;;;5026739;28;20037;-76
2023/02/02 00:08:04;;;;;;;0.40;0.25;;;;;;;;;;5027436;28;20029;-76
2023/02/02 00:10:30;;;;;;;0.40;0.30;;;;;;;;;;5026690;28;20393;-76
2023/02/02 00:12:56;;;;;;;0.20;0.20;;;;;;;;;;5029781;28;20037;-76
2023/02/02 00:15:23;;;;;;;0.30;0.30;;;;;;;;;;5026549;28;20021;-76
2023/02/02 00:17:49;;;;;;;1.58;0.82;;;;;;;;;;5021520;28;20527;-76
2023/02/02 00:20:15;;;;;;;0.75;0.47;;;;;;;;;;5017060;28;20488;-75
2023/02/02 00:22:41;;;;;;;1.73;0.50;;;;;;;;;;5026305;28;20029;-76
2023/02/02 00:25:07;;;;;;;2.97;0.45;;;;;;;;;;5026570;28;20022;-76
2023/02/02 00:27:33;;;;;;;3.15;0.50;;;;;;;;;;5026489;28;20017;-76
2023/02/02 00:29:59;;;;;;;0.57;0.30;;;;;;;;;;5026742;28;20394;-76
2023/02/02 00:32:25;;;;;;;1.40;0.60;;;;;;;;;;5026088;28;20803;-76
2023/02/02 00:34:51;;;;;;;0.40;0.30;;;;;;;;;;5026430;28;20734;-76
2023/02/02 00:37:17;;;;;;;0.40;0.40;;;;;;;;;;5026627;28;20379;-76
2023/02/02 00:39:43;;;;;;;1.05;0.55;;;;;;;;;;5026283;28;20465;-75
2023/02/02 00:42:10;;;;;;;3.10;0.47;;;;;;;;;;5026181;28;20091;-76
2023/02/02 00:47:21;;;;;;;0.55;0.35;;;;;;;;;;5026722;28;20040;-76
2023/02/02 00:49:47;;;;;;;0.82;0.57;;;;;;;;;;5026635;28;20030;-76
2023/02/02 00:52:13;;;;;;;2.80;0.40;;;;;;;;;;5026004;28;20025;-76
2023/02/02 00:54:39;;;;;;;0.65;0.45;;;;;;;;;;5025929;28;20389;-76
2023/02/02 00:57:05;;;;;;;1.05;0.50;;;;;;;;;;5026596;28;20120;-76
2023/02/02 00:59:31;;;;;;;3.00;0.68;;;;;;;;;;5025696;28;20063;-75
2023/02/02 01:01:57;;;;;;;0.40;0.40;;;;;;;;;;5026096;28;20021;-76
2023/02/02 01:04:25;;;;;;;2.53;0.30;;;;;;;;;;5025865;28;20026;-76
2023/02/02 01:06:50;;;;;;;1.15;0.70;;;;;;;;;;5026472;28;20518;-76
2023/02/02 01:09:16;;;;;;;1.02;0.50;;;;;;;;;;5026328;28;20037;-76
2023/02/02 01:11:42;;;;;;;1.05;0.50;;;;;;;;;;5026259;28;20028;-76
2023/02/02 01:14:08;;;;;;;0.80;0.55;;;;;;;;;;5025950;28;20470;-76
2023/02/02 01:16:34;;;;;;;0.60;0.47;;;;;;;;;;5026170;28;20474;-76
2023/02/02 01:19:00;;;;;;;0.90;0.80;;;;;;;;;;5026077;28;20401;-76
2023/02/02 01:21:26;;;;;;;1.10;0.40;;;;;;;;;;5020477;28;20297;-76
2023/02/02 01:23:52;;;;;;;3.58;1.15;;;;;;;;;;5025841;28;20029;-76
2023/02/02 01:26:18;;;;;;;0.60;0.52;;;;;;;;;;5022236;28;20022;-76
2023/02/02 01:28:44;;;;;;;0.65;0.50;;;;;;;;;;5045623;28;20021;-76
2023/02/02 01:31:12;;;;;;;1.52;0.47;;;;;;;;;;5049500;28;20029;-76
2023/02/02 01:33:38;;;;;;;2.25;0.70;;;;;;;;;;5049441;28;20033;-76
2023/02/02 01:36:06;;;;;;;1.17;0.68;;;;;;;;;;5050099;28;20021;-76
2023/02/02 01:38:32;;;;;;;1.70;0.82;;;;;;;;;;5049373;28;20029;-76
2023/02/02 01:40:58;;;;;;;1.42;0.40;;;;;;;;;;5049569;28;20017;-75
2023/02/02 01:43:45;;;;;;;0.50;0.40;;;;;;;;;;5048944;28;20374;-76
2023/02/02 01:46:15;;;;;;;2.38;0.90;;;;;;;;;;5035300;28;20086;-76
2023/02/02 01:48:42;;;;;;;0.63;0.53;;;;;;;;;;5049305;28;20261;-76
2023/02/02 01:51:09;;;;;;;0.60;0.38;;;;;;;;;;5049173;28;20397;-76
2023/02/02 01:53:36;;;;;;;0.68;0.52;;;;;;;;;;5039570;28;20033;-76
2023/02/02 01:56:03;;;;;;;1.90;0.60;;;;;;;;;;5029382;28;20029;-76
2023/02/02 01:58:31;;;;;;;1.20;0.98;;;;;;;;;;5028835;28;20105;-76
2023/02/02 02:00:57;;;;;;;0.75;0.35;;;;;;;;;;5029017;28;20037;-76
2023/02/02 02:03:27;;;;;;;5.07;0.75;;;;;;;;;;5028875;28;20394;-76
2023/02/02 02:05:55;;;;;;;0.30;0.30;;;;;;;;;;5028729;28;20025;-75
2023/02/02 02:08:23;;;;;;;0.40;0.40;;;;;;;;;;5029172;28;20108;-76
2023/02/02 02:10:49;;;;;;;0.43;0.43;;;;;;;;;;5029342;28;20482;-76
2023/02/02 02:13:16;;;;;;;3.22;0.55;;;;;;;;;;5028917;28;20025;-76
2023/02/02 02:16:20;;;;;;;0.80;0.55;;;;;;;;;;5028713;28;20021;-76
2023/02/02 02:18:49;;;;;;;1.10;0.45;;;;;;;;;;5028762;28;20118;-76
2023/02/02 02:27:24;;;;;;;1.85;0.35;;;;;;;;;;5014611;28;20087;-76
2023/02/02 02:30:08;;;;;;;1.48;0.40;;;;;;;;;;5028990;28;20033;-76
2023/02/02 02:32:49;;;;;;;1.23;0.70;;;;;;;;;;5028825;28;20040;-76
2023/02/02 02:35:18;;;;;;;1.65;0.70;;;;;;;;;;5028754;28;20044;-76
2023/02/02 02:37:50;;;;;;;0.40;0.22;;;;;;;;;;5028436;28;20033;-77
2023/02/02 02:40:16;;;;;;;0.52;0.43;;;;;;;;;;5027353;28;20025;-76
2023/02/02 02:42:44;;;;;;;1.65;0.60;;;;;;;;;;5028475;28;20399;-76
2023/02/02 02:45:12;;;;;;;1.02;0.47;;;;;;;;;;5028270;28;20075;-76
2023/02/02 02:47:38;;;;;;;0.82;0.50;;;;;;;;;;5028099;28;20551;-76
2023/02/02 02:50:05;;;;;;;1.48;0.40;;;;;;;;;;5028627;28;20067;-76
2023/02/02 02:52:31;;;;;;;0.38;0.32;;;;;;;;;;5028137;28;20033;-75
2023/02/02 02:54:59;;;;;;;0.80;0.38;;;;;;;;;;5028200;28;20034;-77
2023/02/02 02:57:38;;;;;;;2.10;0.60;;;;;;;;;;5027914;28;20017;-75
2023/02/02 03:00:25;;;;;;;0.50;0.22;;;;;;;;;;5028202;28;20049;-75
2023/02/02 03:02:51;;;;;;;1.40;0.40;;;;;;;;;;5028341;28;20036;-76
2023/02/02 03:05:22;;;;;;;0.80;0.35;;;;;;;;;;5028300;28;20033;-76
2023/02/02 03:07:57;;;;;;;0.73;0.30;;;;;;;;;;5028591;28;20029;-76
2023/02/02 03:10:26;;;;;;;1.10;0.45;;;;;;;;;;5027690;28;20469;-76
2023/02/02 03:12:52;;;;;;;0.98;0.43;;;;;;;;;;5027745;28;20041;-76
2023/02/02 03:15:18;;;;;;;1.05;0.45;;;;;;;;;;5028145;28;20087;-76
2023/02/02 03:17:48;;;;;;;0.60;0.43;;;;;;;;;;5027566;28;20029;-76
2023/02/02 03:20:14;;;;;;;1.10;0.80;;;;;;;;;;5027688;28;20152;-76
2023/02/02 03:22:39;;;;;;;0.95;0.60;;;;;;;;;;5027348;28;20297;-76
2023/02/02 03:25:06;;;;;;;0.30;0.30;;;;;;;;;;5028153;28;20440;-76
2023/02/02 03:27:32;;;;;;;1.63;0.50;;;;;;;;;;5026100;28;20392;-76
2023/02/02 03:29:59;;;;;;;4.50;0.80;;;;;;;;;;5047360;28;20082;-77
2023/02/02 03:32:25;;;;;;;0.20;0.20;;;;;;;;;;5047287;28;20021;-76
2023/02/02 03:34:51;;;;;;;2.13;0.43;;;;;;;;;;5047597;28;20032;-76
2023/02/02 03:37:16;;;;;;;2.50;0.70;;;;;;;;;;5047601;28;20056;-76
2023/02/02 03:39:42;;;;;;;1.00;0.60;;;;;;;;;;5046812;28;20087;-75
2023/02/02 03:42:08;;;;;;;1.40;0.90;;;;;;;;;;5047173;28;20021;-76
2023/02/02 03:44:34;;;;;;;0.63;0.30;;;;;;;;;;5047158;28;20031;-76
2023/02/02 03:47:00;;;;;;;1.77;0.50;;;;;;;;;;5047365;28;20020;-76
2023/02/02 03:49:29;;;;;;;1.83;0.65;;;;;;;;;;5046810;28;20028;-76
2023/02/02 03:51:55;;;;;;;1.00;0.45;;;;;;;;;;5046501;28;20052;-76
2023/02/02 03:54:21;;;;;;;0.68;0.43;;;;;;;;;;5046963;28;20028;-76
2023/02/02 03:56:47;;;;;;;4.32;0.50;;;;;;;;;;5047599;28;20373;-76
2023/02/02 03:59:13;;;;;;;1.65;0.63;;;;;;;;;;5046510;28;20028;-76
2023/02/02 04:01:39;;;;;;;0.75;0.30;;;;;;;;;;5046340;28;20057;-76
2023/02/02 04:04:05;;;;;;;0.95;0.43;;;;;;;;;;5047182;28;20155;-76
2023/02/02 04:06:31;;;;;;;0.73;0.40;;;;;;;;;;5046719;28;20028;-76
2023/02/02 04:08:57;;;;;;;0.75;0.60;;;;;;;;;;5046622;28;20248;-76
2023/02/02 04:11:23;;;;;;;1.20;0.40;;;;;;;;;;5046739;28;20021;-76
2023/02/02 04:13:49;;;;;;;1.38;0.57;;;;;;;;;;5046879;28;20033;-76
2023/02/02 04:16:15;;;;;;;0.20;0.20;;;;;;;;;;5046866;28;20110;-76
2023/02/02 04:18:41;;;;;;;1.27;0.43;;;;;;;;;;5045928;28;20390;-76
2023/02/02 04:21:07;;;;;;;0.63;0.40;;;;;;;;;;5026960;28;20054;-76
2023/02/02 04:23:33;;;;;;;3.08;0.40;;;;;;;;;;5026727;28;20021;-76
2023/02/02 04:26:00;;;;;;;1.08;0.50;;;;;;;;;;5025065;28;20025;-76
2023/02/02 04:28:26;;;;;;;0.65;0.35;;;;;;;;;;5034049;28;20024;-76
2023/02/02 04:30:53;;;;;;;2.25;0.40;;;;;;;;;;5046327;28;20033;-76
2023/02/02 04:33:20;;;;;;;2.28;0.45;;;;;;;;;;5046621;28;20473;-76
2023/02/02 04:35:46;;;;;;;0.77;0.25;;;;;;;;;;5046359;28;20033;-76
2023/02/02 04:38:12;;;;;;;1.52;0.60;;;;;;;;;;5046190;28;20366;-76
2023/02/02 04:40:38;;;;;;;2.55;0.40;;;;;;;;;;5046271;28;20032;-76
2023/02/02 04:43:04;;;;;;;1.25;0.50;;;;;;;;;;5046876;28;20071;-76
2023/02/02 04:45:30;;;;;;;0.30;0.20;;;;;;;;;;5045962;28;20493;-75
2023/02/02 04:47:56;;;;;;;1.15;0.75;;;;;;;;;;5046046;28;20017;-76
2023/02/02 04:50:22;;;;;;;0.65;0.40;;;;;;;;;;5046394;28;20082;-76
2023/02/02 04:52:48;;;;;;;0.32;0.28;;;;;;;;;;5046657;28;20025;-75
2023/02/02 04:55:14;;;;;;;1.17;0.60;;;;;;;;;;5046016;28;20038;-76
2023/02/02 04:57:41;;;;;;;2.90;0.30;;;;;;;;;;5045651;28;20025;-76
2023/02/02 05:00:07;;;;;;;0.85;0.20;;;;;;;;;;5046016;28;20126;-76
2023/02/02 05:02:36;;;;;;;1.33;0.55;;;;;;;;;;5046068;28;20017;-75
2023/02/02 05:05:03;;;;;;;1.73;0.47;;;;;;;;;;5049322;28;20025;-76
2023/02/02 05:07:29;;;;;;;0.55;0.30;;;;;;;;;;5049788;28;20029;-76
2023/02/02 05:09:55;;;;;;;0.70;0.25;;;;;;;;;;5049840;28;20510;-76
2023/02/02 05:12:21;;;;;;;0.60;0.30;;;;;;;;;;5050211;28;20124;-75
2023/02/02 05:14:47;;;;;;;2.83;0.40;;;;;;;;;;5050216;28;20029;-76
2023/02/02 05:17:13;;;;;;;0.20;0.20;;;;;;;;;;5049950;28;20445;-76
2023/02/02 05:19:39;;;;;;;0.50;0.20;;;;;;;;;;5041245;28;20442;-75
2023/02/02 05:22:05;;;;;;;0.70;0.17;;;;;;;;;;5030338;28;20092;-76
2023/02/02 05:24:31;;;;;;;0.43;0.28;;;;;;;;;;5029704;28;20026;-76
2023/02/02 05:26:59;;;;;;;0.10;0.10;;;;;;;;;;5023565;28;20264;-76
2023/02/02 05:29:25;;;;;;;0.52;0.20;;;;;;;;;;5049432;28;20027;-76
2023/02/02 05:31:51;;;;;;;0.30;0.20;;;;;;;;;;5049974;28;20154;-76
2023/02/02 05:34:17;;;;;;;1.25;0.38;;;;;;;;;;5049841;28;20028;-76
2023/02/02 05:36:43;;;;;;;0.50;0.30;;;;;;;;;;5049200;28;20021;-76
2023/02/02 05:39:09;;;;;;;0.30;0.30;;;;;;;;;;5049469;28;20036;-76
2023/02/02 05:41:35;;;;;;;0.20;0.20;;;;;;;;;;5049499;28;20474;-76
2023/02/02 05:44:02;;;;;;;1.02;0.38;;;;;;;;;;5049579;28;20028;-76
2023/02/02 05:46:28;;;;;;;0.52;0.30;;;;;;;;;;5049298;28;20025;-76
2023/02/02 05:48:54;;;;;;;0.50;0.28;;;;;;;;;;5049344;28;20017;-77
2023/02/02 05:51:23;;;;;;;0.45;0.38;;;;;;;;;;5049584;28;20068;-76
2023/02/02 05:53:49;;;;;;;0.93;0.68;;;;;;;;;;5049451;28;20057;-77
2023/02/02 05:56:15;;;;;;;0.25;0.20;;;;;;;;;;5048970;28;20024;-76
2023/02/02 05:58:46;;;;;;;2.20;0.47;;;;;;;;;;5048751;28;20025;-76
2023/02/02 06:01:12;;;;;;;3.20;0.33;;;;;;;;;;5048838;28;20091;-76
2023/02/02 06:03:38;;;;;;;0.82;0.35;;;;;;;;;;5048802;28;20017;-76
2023/02/02 06:06:04;;;;;;;3.08;0.35;;;;;;;;;;5049322;28;20507;-76
2023/02/02 06:08:30;;;;;;;0.55;0.43;;;;;;;;;;5048773;28;20035;-76
2023/02/02 06:10:56;;;;;;;1.17;0.45;;;;;;;;;;5048900;28;20327;-76
2023/02/02 06:13:22;;;;;;;0.85;0.40;;;;;;;;;;5048791;28;20024;-76
2023/02/02 06:15:48;;;;;;;0.50;0.20;;;;;;;;;;5048909;28;20064;-76
2023/02/02 06:18:14;;;;;;;1.00;0.40;;;;;;;;;;5048602;28;20035;-76
2023/02/02 06:20:40;;;;;;;1.17;0.20;;;;;;;;;;5032019;28;20013;-76
2023/02/02 06:23:06;;;;;;;2.55;1.17;;;;;;;;;;5029198;28;20025;-76
2023/02/02 06:25:33;;;;;;;0.10;0.10;;;;;;;;;;5028654;28;20512;-76
2023/02/02 06:27:59;;;;;;;0.50;0.50;;;;;;;;;;5030959;28;20021;-76
2023/02/02 06:30:26;;;;;;;0.60;0.17;;;;;;;;;;5048328;28;20025;-76
2023/02/02 06:32:52;;;;;;;0.90;0.30;;;;;;;;;;5048542;28;20391;-76
2023/02/02 06:35:18;;;;;;;2.15;0.52;;;;;;;;;;5049088;28;20021;-76
2023/02/02 06:37:44;;;;;;;0.30;0.20;;;;;;;;;;5048083;28;20021;-76
2023/02/02 06:40:10;;;;;;;1.05;0.38;;;;;;;;;;5048242;28;20029;-76
2023/02/02 06:42:36;;;;;;;0.90;0.30;;;;;;;;;;5048414;28;20075;-76
2023/02/02 06:45:03;;;;;;;4.68;0.30;;;;;;;;;;5048525;28;20031;-76
2023/02/02 06:47:31;;;;;;;1.63;0.63;;;;;;;;;;5048037;28;20465;-76
2023/02/02 06:49:57;;;;;;;1.48;0.30;;;;;;;;;;5048153;28;20254;-76
2023/02/02 06:52:23;;;;;;;1.05;0.52;;;;;;;;;;5048448;28;20032;-76
2023/02/02 06:54:49;;;;;;;1.42;0.38;;;;;;;;;;5048418;28;20185;-76
2023/02/02 06:57:15;;;;;;;0.30;0.20;;;;;;;;;;5048023;28;20032;-76
2023/02/02 06:59:41;;;;;;;0.32;0.20;;;;;;;;;;5047313;28;20079;-76
2023/02/02 07:02:12;;;;;;;0.45;0.40;;;;;;;;;;5048243;28;20371;-76
2023/02/02 07:04:37;;;;;;;0.95;0.45;;;;;;;;;;5047899;28;20029;-76
2023/02/02 07:07:03;;;;;;;0.63;0.30;;;;;;;;;;5048292;28;20035;-76
2023/02/02 07:09:32;;;;;;;0.40;0.20;;;;;;;;;;5047398;28;20036;-76
2023/02/02 07:11:58;;;;;;;0.25;0.17;;;;;;;;;;5047960;28;20032;-76
2023/02/02 07:14:24;;;;;;;0.52;0.20;;;;;;;;;;5047452;28;20397;-76
2023/02/02 07:16:50;;;;;;;0.20;0.20;;;;;;;;;;5048292;28;20033;-76
2023/02/02 07:19:16;;;;;;;2.17;0.43;;;;;;;;;;5042412;28;20136;-76
2023/02/02 07:21:42;;;;;;;0.20;0.20;;;;;;;;;;5027327;28;20414;-76
2023/02/02 07:24:08;;;;;;;0.32;0.30;;;;;;;;;;5027763;28;20386;-76
2023/02/02 07:26:35;;;;;;;0.45;0.28;;;;;;;;;;5020951;28;20022;-76
2023/02/02 07:29:01;;;;;;;1.38;0.40;;;;;;;;;;5025885;28;20116;-76
2023/02/02 07:31:28;;;;;;;1.13;0.50;;;;;;;;;;5027544;28;20040;-76
2023/02/02 07:33:54;;;;;;;0.15;0.10;;;;;;;;;;5027344;28;20032;-75
2023/02/02 07:36:22;;;;;;;0.38;0.30;;;;;;;;;;5027797;28;20471;-76
2023/02/02 07:38:48;;;;;;;0.10;0.10;;;;;;;;;;5027382;28;20548;-76
2023/02/02 07:41:15;;;;;;;0.60;0.20;;;;;;;;;;5027268;28;20025;-76
2023/02/02 07:43:41;;;;;;;0.38;0.20;;;;;;;;;;5026860;28;20196;-76
2023/02/02 07:46:11;;;;;;;2.33;0.50;;;;;;;;;;5027566;28;20095;-76
2023/02/02 07:48:38;;;;;;;0.30;0.20;;;;;;;;;;5027254;28;20049;-75
2023/02/02 07:51:05;;;;;;;0.65;0.25;;;;;;;;;;5027747;28;20027;-76
2023/02/02 07:53:31;;;;;;;2.00;0.73;;;;;;;;;;5026973;28;20030;-76
2023/02/02 07:56:14;;;;;;;0.30;0.20;;;;;;;;;;5026889;28;20036;-76
2023/02/02 07:58:40;;;;;;;0.50;0.40;;;;;;;;;;5026630;28;20072;-76
2023/02/02 08:01:07;;;;;;;0.95;0.85;;;;;;;;;;5027131;28;20049;-76
2023/02/02 08:03:33;;;;;;;1.65;0.20;;;;;;;;;;5026939;28;20021;-76
2023/02/02 08:05:59;;;;;;;0.25;0.22;;;;;;;;;;5026806;28;20030;-76
2023/02/02 08:08:26;;;;;;;1.45;0.38;;;;;;;;;;5027213;28;20063;-76
2023/02/02 08:10:52;;;;;;;0.40;0.40;;;;;;;;;;5027255;28;20033;-76
2023/02/02 08:13:18;;;;;;;0.47;0.30;;;;;;;;;;5027553;28;20018;-76
2023/02/02 08:15:44;;;;;;;0.52;0.30;;;;;;;;;;5026476;28;20112;-76
2023/02/02 08:18:10;;;;;;;0.28;0.22;;;;;;;;;;5026797;28;20025;-76
2023/02/02 08:20:36;;;;;;;0.55;0.20;;;;;;;;;;5026802;28;20040;-76
2023/02/02 08:23:02;;;;;;;1.27;0.50;;;;;;;;;;5026957;28;20119;-76
2023/02/02 08:25:28;;;;;;;0.50;0.30;;;;;;;;;;5026804;28;20149;-76
2023/02/02 08:27:57;;;;;;;2.08;0.70;;;;;;;;;;5027478;28;20029;-76
2023/02/02 08:30:23;;;;;;;0.20;0.20;;;;;;;;;;5046826;28;20029;-76
2023/02/02 08:32:49;;;;;;;1.08;0.22;;;;;;;;;;5047224;28;20108;-76
2023/02/02 08:35:16;;;;;;;1.80;0.60;;;;;;;;;;5046452;28;20405;-76
2023/02/02 08:37:42;;;;;;;2.67;0.47;;;;;;;;;;5046569;28;20021;-77
2023/02/02 08:40:08;;;;;;;1.75;0.73;;;;;;;;;;5046724;28;20074;-77
2023/02/02 08:42:34;;;;;;;0.80;0.43;;;;;;;;;;5046666;28;20021;-76
2023/02/02 08:45:00;;;;;;;0.55;0.55;;;;;;;;;;5046371;28;20032;-75
2023/02/02 08:47:28;;;;;;;2.90;0.25;;;;;;;;;;5046267;28;20029;-75
2023/02/02 08:49:54;;;;;;;1.20;0.30;;;;;;;;;;5045942;28;20033;-75
2023/02/02 08:52:20;;;;;;;2.42;0.35;;;;;;;;;;5046856;28;20028;-76
2023/02/02 08:54:46;;;;;;;1.83;0.50;;;;;;;;;;5046181;28;20032;-76
2023/02/02 08:57:12;;;;;;;1.35;0.30;;;;;;;;;;5046318;28;20021;-76
2023/02/02 08:59:38;;;;;;;2.90;0.47;;;;;;;;;;5045768;28;20024;-76
2023/02/02 09:02:04;;;;;;;0.70;0.30;;;;;;;;;;5046909;28;20024;-75
2023/02/02 09:04:30;;;;;;;0.43;0.30;;;;;;;;;;5046217;28;20021;-76
2023/02/02 09:06:56;;;;;;;0.55;0.47;;;;;;;;;;5046538;28;20533;-76
2023/02/02 09:09:22;;;;;;;0.10;0.10;;;;;;;;;;5046845;28;20036;-76
2023/02/02 09:11:48;;;;;;;1.48;0.60;;;;;;;;;;5046353;28;20482;-75
2023/02/02 09:14:14;;;;;;;0.45;0.30;;;;;;;;;;5046032;28;20386;-76
2023/02/02 09:16:40;;;;;;;0.52;0.30;;;;;;;;;;5046105;28;20116;-76
2023/02/02 09:19:06;;;;;;;1.30;0.43;;;;;;;;;;5042533;28;20121;-76
2023/02/02 09:21:35;;;;;;;1.95;0.40;;;;;;;;;;5026382;28;20025;-76
2023/02/02 09:24:01;;;;;;;2.35;0.50;;;;;;;;;;5026995;28;20109;-76
2023/02/02 09:26:28;;;;;;;0.82;0.40;;;;;;;;;;5021445;28;20175;-76
2023/02/02 09:29:14;;;;;;;0.20;0.20;;;;;;;;;;5041668;28;20442;-76
2023/02/02 09:31:40;;;;;;;0.80;0.28;;;;;;;;;;5046320;28;20029;-76
2023/02/02 09:34:07;;;;;;;0.80;0.30;;;;;;;;;;5046302;28;20033;-75
2023/02/02 09:36:33;;;;;;;0.15;0.15;;;;;;;;;;5046238;28;20025;-76
2023/02/02 09:39:00;;;;;;;0.68;0.40;;;;;;;;;;5046269;28;20090;-76
2023/02/02 09:41:33;;;;;;;0.75;0.38;;;;;;;;;;5046066;28;20024;-76
2023/02/02 09:44:11;;;;;;;0.20;0.20;;;;;;;;;;5046354;28;20092;-76
2023/02/02 09:46:55;;;;;;;1.50;0.38;;;;;;;;;;5046831;28;20076;-75
2023/02/02 09:49:23;;;;;;;1.20;0.40;;;;;;;;;;5046703;28;20036;-76
2023/02/02 09:51:55;;;;;;;0.50;0.20;;;;;;;;;;5050481;28;20028;-76
2023/02/02 09:54:24;;;;;;;0.90;0.47;;;;;;;;;;5050356;28;20029;-76
2023/02/02 09:56:54;;;;;;;0.20;0.20;;;;;;;;;;5050256;28;20027;-77
2023/02/02 09:59:22;;;;;;;0.30;0.30;;;;;;;;;;5050489;28;20415;-77
2023/02/02 10:01:52;;;;;;;1.63;0.45;;;;;;;;;;5050236;28;20044;-77
2023/02/02 10:04:27;;;;;;;1.02;0.20;;;;;;;;;;5050201;28;20029;-77
2023/02/02 10:06:55;;;;;;;0.73;0.30;;;;;;;;;;5049680;28;20044;-76
2023/02/02 10:09:39;;;;;;;0.30;0.30;;;;;;;;;;5049819;28;20017;-77
2023/02/02 10:12:24;;;;;;;0.20;0.20;;;;;;;;;;5050252;28;20025;-77
2023/02/02 10:15:04;;;;;;;1.35;0.30;;;;;;;;;;5049791;28;20504;-75
2023/02/02 10:17:38;;;;;;;0.30;0.20;;;;;;;;;;5048850;28;20041;-75
2023/02/02 10:20:14;;;;;;;0.73;0.20;;;;;;;;;;5037645;28;20052;-75
2023/02/02 10:22:41;;;;;;;0.80;0.35;;;;;;;;;;5028603;28;20032;-75
2023/02/02 10:25:11;;;;;;;1.30;0.17;;;;;;;;;;5029335;28;20408;-76
2023/02/02 10:27:38;;;;;;;0.90;0.60;;;;;;;;;;5027878;28;20031;-76
2023/02/02 10:30:25;;;;;;;0.65;0.40;;;;;;;;;;5049232;28;20025;-75
2023/02/02 10:32:57;;;;;;;0.63;0.50;;;;;;;;;;5049063;28;20037;-75
2023/02/02 10:35:45;;;;;;;1.90;0.30;;;;;;;;;;5049033;28;20135;-77
2023/02/02 10:38:18;;;;;;;0.98;0.50;;;;;;;;;;5048762;28;20445;-76
2023/02/02 10:40:51;;;;;;;0.20;0.20;;;;;;;;;;5048657;28;20049;-76
2023/02/02 10:46:03;;;;;;;0.40;0.30;;;;;;;;;;5049265;28;20175;-75
2023/02/02 10:48:35;;;;;;;0.45;0.28;;;;;;;;;;5049331;28;20040;-76
2023/02/02 10:51:10;;;;;;;0.63;0.20;;;;;;;;;;5050123;28;20028;-76
2023/02/02 10:53:37;;;;;;;0.90;0.20;;;;;;;;;;5049189;28;20047;-76
2023/02/02 10:56:05;;;;;;;0.10;0.10;;;;;;;;;;5049227;28;20036;-76
2023/02/02 10:58:43;;;;;;;1.08;0.20;;;;;;;;;;5048597;28;20375;-76
2023/02/02 11:01:10;;;;;;;0.35;0.35;;;;;;;;;;5047697;28;20167;-75
2023/02/02 11:03:37;;;;;;;0.47;0.20;;;;;;;;;;5048874;28;20033;-75
2023/02/02 11:08:59;;;;;;;0.47;0.40;;;;;;;;;;5049030;28;20098;-76
2023/02/02 11:11:37;;;;;;;2.80;0.20;;;;;;;;;;5048517;28;20024;-76
2023/02/02 11:14:12;;;;;;;0.45;0.35;;;;;;;;;;5048824;28;20035;-76
2023/02/02 11:16:39;;;;;;;0.30;0.20;;;;;;;;;;5048810;28;20025;-76
2023/02/02 11:19:18;;;;;;;0.60;0.50;;;;;;;;;;5045997;28;20075;-77
2023/02/02 11:21:52;;;;;;;1.08;0.40;;;;;;;;;;5029157;28;20029;-76
2023/02/02 11:24:28;;;;;;;0.30;0.30;;;;;;;;;;5029488;28;20029;-76
2023/02/02 11:27:01;;;;;;;0.20;0.20;;;;;;;;;;5021971;28;20048;-76
2023/02/02 11:29:29;;;;;;;0.32;0.20;;;;;;;;;;5048690;28;20429;-77
2023/02/02 11:31:55;;;;;;;0.20;0.15;;;;;;;;;;5048479;28;20044;-76
2023/02/02 11:34:22;;;;;;;0.85;0.22;;;;;;;;;;5049014;28;20108;-76
2023/02/02 11:36:59;;;;;;;0.43;0.43;;;;;;;;;;5048531;28;20021;-77
2023/02/02 11:39:25;;;;;;;0.20;0.20;;;;;;;;;;5048660;28;20060;-77
2023/02/02 11:41:51;;;;;;;0.40;0.40;;;;;;;;;;5048580;28;20017;-77
2023/02/02 11:44:24;;;;;;;0.85;0.40;;;;;;;;;;5048986;28;20021;-77
2023/02/02 11:46:50;;;;;;;0.75;0.20;;;;;;;;;;5048152;28;20070;-77
2023/02/02 11:49:18;;;;;;;2.63;0.20;;;;;;;;;;5047874;28;20401;-76
2023/02/02 11:51:55;;;;;;;1.45;0.40;;;;;;;;;;5047750;28;20025;-76
2023/02/02 11:54:25;;;;;;;1.52;0.20;;;;;;;;;;5047935;28;20025;-76
2023/02/02 11:56:52;;;;;;;0.90;0.30;;;;;;;;;;5048707;28;20040;-76
2023/02/02 11:59:37;;;;;;;0.75;0.57;;;;;;;;;;5048534;28;20039;-76
2023/02/02 12:02:20;;;;;;;0.20;0.20;;;;;;;;;;5048761;28;20060;-76
2023/02/02 12:04:47;;;;;;;0.30;0.17;;;;;;;;;;5029442;28;20135;-75
2023/02/02 12:07:25;;;;;;;0.50;0.15;;;;;;;;;;5047545;28;20056;-76
2023/02/02 12:09:51;;;;;;;0.63;0.20;;;;;;;;;;5048041;28;20036;-76
2023/02/02 12:12:31;;;;;;;0.73;0.22;;;;;;;;;;5047958;28;20108;-76
2023/02/02 12:15:02;;;;;;;0.43;0.32;;;;;;;;;;5047509;28;20400;-76
2023/02/02 12:17:31;;;;;;;0.20;0.20;;;;;;;;;;5048225;28;20541;-76
2023/02/02 12:20:11;;;;;;;0.40;0.20;;;;;;;;;;5037179;28;20036;-76
2023/02/02 12:22:37;;;;;;;1.38;0.25;;;;;;;;;;5027928;28;20030;-76
2023/02/02 12:25:10;;;;;;;0.55;0.35;;;;;;;;;;5028288;28;20075;-76
2023/02/02 12:27:43;;;;;;;0.20;0.20;;;;;;;;;;5026947;28;20032;-77
2023/02/02 12:30:29;;;;;;;0.10;0.10;;;;;;;;;;5047713;28;20029;-76
2023/02/02 12:33:08;;;;;;;0.38;0.22;;;;;;;;;;5047243;28;20044;-76
2023/02/02 12:35:53;;;;;;;0.40;0.30;;;;;;;;;;5048085;28;20028;-76
2023/02/02 12:38:42;;;;;;;0.65;0.28;;;;;;;;;;5047816;28;20120;-76
2023/02/02 12:41:26;;;;;;;0.20;0.20;;;;;;;;;;5047791;28;20079;-77
2023/02/02 12:44:01;;;;;;;0.30;0.30;;;;;;;;;;5047558;28;20028;-76
2023/02/02 12:46:46;;;;;;;1.15;0.25;;;;;;;;;;5047117;28;20017;-76
2023/02/02 12:49:24;;;;;;;0.63;0.20;;;;;;;;;;5046735;28;20037;-75
2023/02/02 12:52:11;;;;;;;0.88;0.47;;;;;;;;;;5047147;28;20086;-77
2023/02/02 12:54:52;;;;;;;0.20;0.20;;;;;;;;;;5047526;28;20088;-76
2023/02/02 12:57:18;;;;;;;1.25;0.30;;;;;;;;;;5047671;28;20100;-76
2023/02/02 13:00:00;;;;;;;1.00;0.20;;;;;;;;;;5047063;28;20382;-76
2023/02/02 13:02:33;;;;;;;0.17;0.17;;;;;;;;;;5047752;28;20025;-76
2023/02/02 13:04:59;;;;;;;0.40;0.20;;;;;;;;;;5047661;28;20095;-76
2023/02/02 13:07:32;;;;;;;1.00;0.20;;;;;;;;;;5048086;28;20021;-76
2023/02/02 13:10:00;;;;;;;0.15;0.15;;;;;;;;;;5047733;28;20025;-76
2023/02/02 13:12:27;;;;;;;0.30;0.30;;;;;;;;;;5047928;28;20028;-76
2023/02/02 13:14:56;;;;;;;0.10;0.10;;;;;;;;;;5047553;28;20049;-76
2023/02/02 13:17:28;;;;;;;0.68;0.30;;;;;;;;;;5048813;28;20363;-76
2023/02/02 13:19:57;;;;;;;0.40;0.40;;;;;;;;;;5037305;28;20025;-75
2023/02/02 13:22:28;;;;;;;0.30;0.30;;;;;;;;;;5028075;28;20026;-76
2023/02/02 13:24:56;;;;;;;0.10;0.10;;;;;;;;;;5028541;28;20034;-76
2023/02/02 13:27:23;;;;;;;0.10;0.10;;;;;;;;;;5029336;28;20514;-76
2023/02/02 13:29:51;;;;;;;0.32;0.32;;;;;;;;;;5052153;28;20029;-76
2023/02/02 13:32:30;;;;;;;0.52;0.28;;;;;;;;;;5051707;28;20625;-76
2023/02/02 13:35:15;;;;;;;0.20;0.20;;;;;;;;;;5050779;28;20477;-76
2023/02/02 13:38:03;;;;;;;0.43;0.20;;;;;;;;;;5051403;28;20031;-76
2023/02/02 13:40:37;;;;;;;0.05;0.05;;;;;;;;;;5050781;28;20021;-76
2023/02/02 13:43:22;;;;;;;0.28;0.25;;;;;;;;;;5051233;28;20017;-76
2023/02/02 13:46:11;;;;;;;0.30;0.30;;;;;;;;;;5050990;28;20017;-76
2023/02/02 13:48:59;;;;;;;0.65;0.40;;;;;;;;;;5051169;28;20104;-76
2023/02/02 13:51:36;;;;;;;0.38;0.30;;;;;;;;;;5050994;28;20032;-76
2023/02/02 13:54:10;;;;;;;0.65;0.20;;;;;;;;;;5050893;28;20025;-76
2023/02/02 13:56:45;;;;;;;0.28;0.25;;;;;;;;;;5050347;28;20307;-76
2023/02/02 13:59:39;;;;;;;0.57;0.20;;;;;;;;;;5049695;28;20336;-76
2023/02/02 14:02:19;;;;;;;0.80;0.80;;;;;;;;;;5050408;28;20140;-77
2023/02/02 14:04:51;;;;;;;0.45;0.40;;;;;;;;;;5049699;28;20017;-76
2023/02/02 14:07:25;;;;;;;1.42;0.22;;;;;;;;;;5050385;28;20021;-77
2023/02/02 14:09:51;;;;;;;0.20;0.20;;;;;;;;;;5049387;28;20021;-76
2023/02/02 14:12:24;;;;;;;0.20;0.20;;;;;;;;;;5049254;28;20031;-76
2023/02/02 14:14:50;;;;;;;0.32;0.32;;;;;;;;;;5049546;28;20029;-76
2023/02/02 14:17:18;;;;;;;0.20;0.20;;;;;;;;;;5049106;28;20095;-76
2023/02/02 14:19:54;;;;;;;1.13;0.30;;;;;;;;;;5039908;28;20033;-76
2023/02/02 14:22:20;;;;;;;0.40;0.30;;;;;;;;;;5029470;28;20033;-76
2023/02/02 14:24:50;;;;;;;0.10;0.10;;;;;;;;;;5028975;28;20387;-76
2023/02/02 14:27:16;;;;;;;0.35;0.30;;;;;;;;;;5024958;28;20016;-76
2023/02/02 14:29:42;;;;;;;1.33;0.28;;;;;;;;;;5048764;28;20420;-76
2023/02/02 14:32:24;;;;;;;0.60;0.40;;;;;;;;;;5048718;28;20033;-76
2023/02/02 14:34:50;;;;;;;;;;;;;;;;;;5049504;28;20029;-76
2023/02/02 14:37:22;;;;;;;0.32;0.30;;;;;;;;;;5048676;28;19966;-76
2023/02/02 14:39:51;;;;;;;0.10;0.10;;;;;;;;;;5048640;28;20037;-76
2023/02/02 14:45:11;;;;;;;0.20;0.20;;;;;;;;;;5048860;28;20082;-76
2023/02/02 14:47:48;;;;;;;0.20;0.20;;;;;;;;;;5048739;28;20134;-76
2023/02/02 14:50:37;;;;;;;0.20;0.20;;;;;;;;;;5048451;28;20036;-76
2023/02/02 14:53:12;;;;;;;0.20;0.20;;;;;;;;;;5048352;28;20128;-76
2023/02/02 14:55:50;;;;;;;0.65;0.30;;;;;;;;;;5048547;28;20035;-76
2023/02/02 14:58:22;;;;;;;0.40;0.40;;;;;;;;;;5048028;28;20427;-76
2023/02/02 15:00:54;;;;;;;1.15;0.20;;;;;;;;;;5048334;28;20094;-76
2023/02/02 15:03:33;;;;;;;0.10;0.10;;;;;;;;;;5048678;28;20389;-76
2023/02/02 15:06:04;;;;;;;0.30;0.30;;;;;;;;;;5048058;28;20305;-76
2023/02/02 15:08:30;;;;;;;1.77;0.40;;;;;;;;;;5048196;28;20031;-76
2023/02/02 15:10:58;;;;;;;0.47;0.25;;;;;;;;;;5047718;28;20655;-76
2023/02/02 15:13:25;;;;;;;0.35;0.25;;;;;;;;;;5048128;28;20538;-76